createdAt,value
2018-03-30T00:00:45.846Z,95.34
2018-03-30T00:03:14.057Z,95.35
2018-03-30T00:05:42.321Z,95.77
2018-03-30T00:08:10.592Z,96.33
2018-03-30T00:10:44.456Z,96.07
2018-03-30T00:13:13.517Z,95.78
2018-03-30T00:15:41.856Z,96.52
2018-03-30T00:18:10.122Z,96.36
2018-03-30T00:20:38.401Z,95.97
2018-03-30T00:23:06.656Z,95.92
2018-03-30T00:25:35.724Z,97.43
2018-03-30T00:28:04.013Z,97.77
2018-03-30T00:30:32.268Z,98.19
2018-03-30T00:33:00.569Z,97.49
2018-03-30T00:35:29.597Z,97.05
2018-03-30T00:37:57.861Z,97.27
2018-03-30T00:40:26.184Z,97.05
2018-03-30T00:42:54.417Z,97.37
2018-03-30T00:45:22.664Z,97.04
2018-03-30T00:47:51.708Z,97.00
2018-03-30T00:50:19.977Z,96.88
2018-03-30T00:52:49.923Z,96.80
2018-03-30T00:55:18.193Z,97.21
2018-03-30T00:57:46.464Z,97.18
2018-03-30T01:00:14.729Z,96.61
2018-03-30T01:02:42.998Z,96.30
2018-03-30T01:05:11.376Z,97.04
2018-03-30T01:07:39.680Z,97.54
2018-03-30T01:10:07.936Z,97.34
2018-03-30T01:12:36.203Z,97.16
2018-03-30T01:15:04.462Z,97.73
2018-03-30T01:17:32.745Z,97.57
2018-03-30T01:20:01.001Z,97.01
2018-03-30T01:22:30.034Z,96.89
2018-03-30T01:24:58.303Z,97.39
2018-03-30T01:27:26.597Z,96.77
2018-03-30T01:29:54.859Z,96.19
2018-03-30T01:32:23.148Z,96.29
2018-03-30T01:34:51.404Z,95.59
2018-03-30T01:37:19.660Z,95.88
2018-03-30T01:39:47.934Z,95.96
2018-03-30T01:42:16.197Z,95.83
2018-03-30T01:44:45.247Z,95.68
2018-03-30T01:47:13.501Z,95.48
2018-03-30T01:49:41.762Z,94.96
2018-03-30T01:52:10.036Z,95.23
2018-03-30T01:54:38.289Z,95.44
2018-03-30T01:57:07.342Z,94.56
2018-03-30T01:59:35.597Z,96.18
2018-03-30T02:02:03.856Z,96.90
2018-03-30T02:04:32.157Z,96.13
2018-03-30T02:07:00.418Z,96.78
2018-03-30T02:09:28.685Z,96.75
2018-03-30T02:11:56.967Z,96.17
2018-03-30T02:14:25.224Z,96.03
2018-03-30T02:16:54.236Z,96.20
2018-03-30T02:19:22.513Z,96.52
2018-03-30T02:21:50.778Z,96.13
2018-03-30T02:24:19.809Z,95.35
2018-03-30T02:26:48.077Z,95.06
2018-03-30T02:29:16.333Z,95.58
2018-03-30T02:31:44.587Z,96.31
2018-03-30T02:34:13.628Z,95.89
2018-03-30T02:36:41.905Z,95.81
2018-03-30T02:39:10.159Z,96.09
2018-03-30T02:41:38.497Z,95.68
2018-03-30T02:44:06.727Z,95.73
2018-03-30T02:46:34.977Z,95.85
2018-03-30T02:49:03.258Z,96.84
2018-03-30T02:51:31.521Z,97.37
2018-03-30T02:54:00.541Z,97.63
2018-03-30T02:56:28.819Z,97.77
2018-03-30T02:58:57.093Z,97.62
2018-03-30T03:01:25.494Z,97.10
2018-03-30T03:03:53.748Z,97.29
2018-03-30T03:06:22.004Z,96.62
2018-03-30T03:08:50.285Z,96.55
2018-03-30T03:11:18.537Z,96.02
2018-03-30T03:13:47.568Z,96.39
2018-03-30T03:16:15.853Z,96.68
2018-03-30T03:18:44.124Z,96.62
2018-03-30T03:21:12.386Z,97.27
2018-03-30T03:23:40.660Z,97.29
2018-03-30T03:26:08.919Z,96.81
2018-03-30T03:28:37.946Z,97.02
2018-03-30T03:31:06.233Z,96.39
2018-03-30T03:33:34.496Z,95.87
2018-03-30T03:36:02.824Z,95.69
2018-03-30T03:38:31.102Z,96.28
2018-03-30T03:40:59.356Z,96.45
2018-03-30T03:43:27.625Z,96.21
2018-03-30T03:45:55.894Z,96.04
2018-03-30T03:48:24.153Z,96.11
2018-03-30T03:50:52.480Z,95.45
2018-03-30T03:53:20.749Z,95.39
2018-03-30T03:55:49.039Z,94.97
2018-03-30T03:58:17.289Z,94.78
2018-03-30T04:00:45.584Z,94.76
2018-03-30T04:03:13.840Z,94.99
2018-03-30T04:05:42.116Z,94.73
2018-03-30T04:08:10.400Z,94.38
2018-03-30T04:10:38.652Z,94.01
2018-03-30T04:13:06.921Z,94.74
2018-03-30T04:15:35.221Z,94.78
2018-03-30T04:18:03.512Z,94.69
2018-03-30T04:20:33.283Z,94.62
2018-03-30T04:23:01.658Z,94.44
2018-03-30T04:25:29.920Z,95.15
2018-03-30T04:27:58.181Z,95.40
2018-03-30T04:30:27.221Z,95.79
2018-03-30T04:32:55.542Z,96.24
2018-03-30T04:35:23.796Z,96.92
2018-03-30T04:37:52.081Z,96.92
2018-03-30T04:40:20.348Z,96.26
2018-03-30T04:42:48.609Z,96.30
2018-03-30T04:45:16.886Z,95.65
2018-03-30T04:47:45.148Z,95.21
2018-03-30T04:50:13.412Z,94.83
2018-03-30T04:52:41.688Z,95.32
2018-03-30T04:55:09.976Z,95.77
2018-03-30T04:57:38.245Z,96.03
2018-03-30T05:00:06.507Z,95.73
2018-03-30T05:02:34.785Z,95.66
2018-03-30T05:05:03.077Z,95.24
2018-03-30T05:07:31.335Z,95.42
2018-03-30T05:09:59.600Z,95.51
2018-03-30T05:12:27.872Z,95.43
2018-03-30T05:14:56.909Z,94.90
2018-03-30T05:17:25.168Z,94.35
2018-03-30T05:19:53.445Z,93.52
2018-03-30T05:22:21.715Z,93.69
2018-03-30T05:24:49.972Z,93.07
2018-03-30T05:27:18.254Z,93.14
2018-03-30T05:29:46.531Z,92.83
2018-03-30T05:32:14.780Z,92.60
2018-03-30T05:34:43.047Z,92.79
2018-03-30T05:37:11.306Z,93.07
2018-03-30T05:39:39.584Z,92.57
2018-03-30T05:42:07.876Z,92.37
2018-03-30T05:44:36.129Z,91.35
2018-03-30T05:47:04.401Z,91.64
2018-03-30T05:49:32.668Z,91.67
2018-03-30T05:52:00.956Z,91.58
2018-03-30T05:54:29.307Z,92.38
2018-03-30T05:56:57.650Z,92.50
2018-03-30T05:59:26.751Z,92.56
2018-03-30T06:01:55.121Z,92.20
2018-03-30T06:04:24.227Z,93.11
2018-03-30T06:06:52.573Z,93.38
2018-03-30T06:09:20.920Z,94.25
2018-03-30T06:11:49.220Z,93.94
2018-03-30T06:14:17.584Z,92.86
2018-03-30T06:16:45.908Z,92.00
2018-03-30T06:19:14.989Z,91.77
2018-03-30T06:21:44.097Z,92.09
2018-03-30T06:24:13.180Z,91.61
2018-03-30T06:26:42.337Z,91.09
2018-03-30T06:29:10.683Z,91.07
2018-03-30T06:31:39.015Z,91.03
2018-03-30T06:34:07.308Z,91.59
2018-03-30T06:36:35.564Z,92.07
2018-03-30T06:39:03.836Z,92.22
2018-03-30T06:41:32.115Z,91.74
2018-03-30T06:44:00.376Z,90.93
2018-03-30T06:46:28.652Z,91.42
2018-03-30T06:48:56.904Z,90.44
2018-03-30T06:51:25.552Z,90.38
2018-03-30T06:53:54.605Z,92.21
2018-03-30T06:56:22.853Z,91.59
2018-03-30T06:58:51.108Z,91.17
2018-03-30T07:01:20.146Z,90.53
2018-03-30T07:03:48.412Z,90.99
2018-03-30T07:06:16.688Z,90.56
2018-03-30T07:08:44.944Z,91.28
2018-03-30T07:11:13.994Z,91.12
2018-03-30T07:13:42.253Z,90.19
2018-03-30T07:16:10.535Z,89.44
2018-03-30T07:18:38.812Z,89.64
2018-03-30T07:21:07.066Z,89.08
2018-03-30T07:23:35.340Z,89.21
2018-03-30T07:26:03.618Z,88.90
2018-03-30T07:28:31.875Z,88.48
2018-03-30T07:31:00.135Z,88.27
2018-03-30T07:33:29.221Z,87.87
2018-03-30T07:35:58.285Z,87.47
2018-03-30T07:38:26.557Z,87.13
2018-03-30T07:40:54.806Z,86.95
2018-03-30T07:43:23.152Z,86.43
2018-03-30T07:45:52.237Z,85.91
2018-03-30T07:48:21.335Z,85.03
2018-03-30T07:50:50.444Z,86.95
2018-03-30T07:53:18.792Z,86.55
2018-03-30T07:55:47.133Z,86.61
2018-03-30T07:58:15.458Z,86.36
2018-03-30T08:00:44.573Z,85.64
2018-03-30T08:03:13.608Z,84.93
2018-03-30T08:05:41.860Z,85.20
2018-03-30T08:08:10.152Z,85.41
2018-03-30T08:10:38.417Z,85.46
2018-03-30T08:13:06.681Z,85.19
2018-03-30T08:15:34.976Z,85.85
2018-03-30T08:18:03.280Z,86.15
2018-03-30T08:20:31.524Z,86.37
2018-03-30T08:22:59.803Z,85.81
2018-03-30T08:25:28.073Z,85.70
2018-03-30T08:27:56.334Z,85.81
2018-03-30T08:30:25.365Z,85.32
2018-03-30T08:32:53.627Z,84.47
2018-03-30T08:35:21.884Z,83.88
2018-03-30T08:37:50.499Z,83.81
2018-03-30T08:40:18.792Z,84.24
2018-03-30T08:42:47.048Z,83.36
2018-03-30T08:45:15.317Z,82.90
2018-03-30T08:47:43.594Z,81.12
2018-03-30T08:50:11.878Z,81.16
2018-03-30T08:52:40.137Z,79.83
2018-03-30T08:55:08.409Z,79.76
2018-03-30T08:57:36.664Z,77.48
2018-03-30T09:00:05.716Z,77.31
2018-03-30T09:02:33.968Z,76.99
2018-03-30T09:05:02.229Z,75.17
2018-03-30T09:07:30.499Z,73.96
2018-03-30T09:09:59.518Z,72.76
2018-03-30T09:12:27.776Z,71.48
2018-03-30T09:14:56.058Z,72.95
2018-03-30T09:17:24.319Z,71.96
2018-03-30T09:19:52.581Z,72.49
2018-03-30T09:22:21.617Z,69.54
2018-03-30T09:24:49.883Z,68.51
2018-03-30T09:27:18.136Z,68.22
2018-03-30T09:29:52.682Z,63.71
2018-03-30T09:32:20.940Z,66.07
2018-03-30T09:34:49.980Z,65.25
2018-03-30T09:37:18.237Z,65.01
2018-03-30T09:39:46.516Z,63.20
2018-03-30T09:42:14.788Z,62.88
2018-03-30T09:44:43.054Z,63.97
2018-03-30T09:47:11.352Z,64.59
2018-03-30T09:49:39.612Z,64.22
2018-03-30T09:52:07.889Z,62.96
2018-03-30T09:54:36.160Z,63.73
2018-03-30T09:57:04.490Z,61.33
2018-03-30T09:59:32.761Z,59.95
2018-03-30T10:02:01.020Z,59.58
2018-03-30T10:04:29.301Z,61.97
2018-03-30T10:06:57.553Z,62.60
2018-03-30T10:09:25.870Z,59.34
2018-03-30T10:11:54.109Z,60.53
2018-03-30T10:14:22.384Z,60.15
2018-03-30T10:16:50.653Z,61.23
2018-03-30T10:19:18.923Z,57.62
2018-03-30T10:21:47.221Z,59.75
2018-03-30T10:24:15.481Z,59.03
2018-03-30T10:26:43.780Z,57.73
2018-03-30T10:29:12.085Z,56.65
2018-03-30T10:31:40.372Z,57.51
2018-03-30T10:34:09.456Z,56.30
2018-03-30T10:36:38.542Z,55.41
2018-03-30T10:39:06.818Z,55.96
2018-03-30T10:41:35.085Z,54.29
2018-03-30T10:44:03.456Z,53.78
2018-03-30T10:46:31.761Z,52.58
2018-03-30T10:49:00.827Z,53.87
2018-03-30T10:51:29.100Z,54.09
2018-03-30T10:53:57.370Z,54.69
2018-03-30T10:56:25.649Z,52.46
2018-03-30T10:58:53.992Z,52.31
2018-03-30T11:01:22.269Z,53.62
2018-03-30T11:03:50.535Z,54.55
2018-03-30T11:06:19.593Z,52.31
2018-03-30T11:08:47.876Z,52.97
2018-03-30T11:11:16.142Z,49.47
2018-03-30T11:13:44.492Z,48.93
2018-03-30T11:16:12.823Z,50.12
2018-03-30T11:18:41.923Z,51.60
2018-03-30T11:21:11.043Z,51.22
2018-03-30T11:23:39.371Z,48.69
2018-03-30T11:26:08.498Z,48.94
2018-03-30T11:28:36.835Z,50.66
2018-03-30T11:31:05.194Z,51.00
2018-03-30T11:33:33.497Z,50.90
2018-03-30T11:36:01.792Z,48.33
2018-03-30T11:38:30.053Z,50.22
2018-03-30T11:40:58.341Z,51.07
2018-03-30T11:43:26.614Z,49.96
2018-03-30T11:45:54.877Z,49.29
2018-03-30T11:48:23.161Z,49.08
2018-03-30T11:50:52.394Z,48.37
2018-03-30T11:53:20.693Z,45.91
2018-03-30T11:55:48.969Z,48.58
2018-03-30T11:58:17.236Z,50.06
2018-03-30T12:00:45.514Z,48.94
2018-03-30T12:03:13.814Z,49.23
2018-03-30T12:05:42.076Z,49.41
2018-03-30T12:08:10.361Z,49.60
2018-03-30T12:10:38.734Z,50.75
2018-03-30T12:13:08.233Z,48.02
2018-03-30T12:15:36.486Z,47.49
2018-03-30T12:18:04.760Z,46.63
2018-03-30T12:20:33.023Z,48.60
2018-03-30T12:23:02.086Z,48.59
2018-03-30T12:25:31.864Z,48.38
2018-03-30T12:28:00.137Z,48.91
2018-03-30T12:30:28.428Z,47.44
2018-03-30T12:32:56.696Z,47.56
2018-03-30T12:35:24.958Z,47.03
2018-03-30T12:37:53.238Z,47.67
2018-03-30T12:40:21.500Z,48.95
2018-03-30T12:42:49.789Z,49.43
2018-03-30T12:45:18.064Z,49.38
2018-03-30T12:47:46.354Z,48.63
2018-03-30T12:50:14.657Z,49.16
2018-03-30T12:52:42.946Z,48.67
2018-03-30T12:55:11.249Z,49.20
2018-03-30T12:57:40.293Z,49.13
2018-03-30T13:00:08.581Z,49.46
2018-03-30T13:02:36.836Z,49.29
2018-03-30T13:05:05.146Z,48.16
2018-03-30T13:07:33.433Z,49.26
2018-03-30T13:10:01.688Z,47.59
2018-03-30T13:12:30.010Z,48.49
2018-03-30T13:14:58.278Z,48.78
2018-03-30T13:17:27.321Z,47.85
2018-03-30T13:19:55.584Z,46.67
2018-03-30T13:22:23.877Z,48.79
2018-03-30T13:24:52.149Z,48.69
2018-03-30T13:27:20.430Z,48.89
2018-03-30T13:29:48.700Z,49.72
2018-03-30T13:32:16.976Z,48.78
2018-03-30T13:34:45.253Z,49.80
2018-03-30T13:37:13.529Z,48.85
2018-03-30T13:39:41.820Z,49.21
2018-03-30T13:42:10.075Z,48.47
2018-03-30T13:44:38.340Z,49.05
2018-03-30T13:47:06.685Z,48.87
2018-03-30T13:49:34.904Z,48.60
2018-03-30T13:55:40.812Z,48.55
2018-03-30T13:58:11.857Z,49.43
2018-03-30T14:00:47.296Z,47.72
2018-03-30T14:03:29.868Z,48.23
2018-03-30T14:12:15.297Z,49.79
2018-03-30T14:14:43.583Z,49.56
2018-03-30T14:17:21.167Z,49.12
2018-03-30T14:19:50.184Z,48.94
2018-03-30T14:22:33.815Z,48.36
2018-03-30T14:25:07.497Z,47.43
2018-03-30T14:30:37.824Z,47.74
2018-03-30T14:33:08.329Z,47.62
2018-03-30T14:35:43.317Z,48.07
2018-03-30T14:41:13.498Z,48.17
2018-03-30T14:43:58.686Z,46.39
2018-03-30T14:47:09.451Z,45.75
2018-03-30T14:49:46.976Z,45.63
2018-03-30T14:52:27.052Z,44.75
2018-03-30T14:55:05.617Z,43.65
2018-03-30T14:57:41.900Z,43.50
2018-03-30T15:00:17.820Z,44.16
2018-03-30T15:06:12.273Z,44.07
2018-03-30T15:08:47.271Z,43.98
2018-03-30T15:11:37.712Z,44.40
2018-03-30T15:14:26.004Z,44.53
2018-03-30T15:16:59.146Z,45.25
2018-03-30T15:19:35.895Z,44.59
2018-03-30T15:22:07.789Z,45.08
2018-03-30T15:24:45.710Z,45.30
2018-03-30T15:27:28.777Z,46.68
2018-03-30T15:30:15.281Z,47.27
2018-03-30T15:35:53.504Z,48.70
2018-03-30T15:38:22.551Z,48.93
2018-03-30T15:40:50.828Z,49.45
2018-03-30T15:43:19.118Z,48.87
2018-03-30T15:49:02.812Z,49.14
2018-03-30T15:51:34.479Z,50.05
2018-03-30T15:54:02.036Z,49.67
2018-03-30T15:56:37.889Z,49.97
2018-03-30T15:59:06.195Z,49.59
2018-03-30T16:01:34.577Z,50.51
2018-03-30T16:04:02.851Z,51.20
2018-03-30T16:06:31.267Z,50.89
2018-03-30T16:09:00.366Z,51.15
2018-03-30T16:11:34.637Z,49.47
2018-03-30T16:14:03.060Z,50.77
2018-03-30T16:16:32.228Z,51.63
2018-03-30T16:18:59.799Z,51.39
2018-03-30T16:21:27.520Z,51.88
2018-03-30T16:23:55.208Z,51.47
2018-03-30T16:26:23.123Z,51.89
2018-03-30T16:28:51.000Z,51.84
2018-03-30T16:31:18.759Z,52.66
2018-03-30T16:33:46.407Z,53.00
2018-03-30T16:36:15.874Z,52.96
2018-03-30T16:38:43.836Z,53.33
2018-03-30T16:41:11.700Z,54.14
2018-03-30T16:43:40.281Z,54.38
2018-03-30T16:46:08.956Z,55.04
2018-03-30T16:48:36.548Z,55.44
2018-03-30T16:51:04.065Z,55.66
2018-03-30T16:53:31.628Z,56.28
2018-03-30T16:55:59.549Z,55.71
2018-03-30T16:58:27.671Z,56.22
2018-03-30T17:00:55.540Z,56.08
2018-03-30T17:03:23.114Z,56.08
2018-03-30T17:05:51.066Z,56.36
2018-03-30T17:08:18.829Z,57.24
2018-03-30T17:10:47.106Z,56.49
2018-03-30T17:13:14.972Z,57.26
2018-03-30T17:15:43.132Z,58.60
2018-03-30T17:18:12.017Z,58.86
2018-03-30T17:20:40.690Z,60.00
2018-03-30T17:23:09.343Z,60.37
2018-03-30T17:25:37.685Z,60.82
2018-03-30T17:28:05.962Z,60.86
2018-03-30T17:30:33.626Z,62.02
2018-03-30T17:33:01.997Z,61.72
2018-03-30T17:35:30.388Z,62.01
2018-03-30T17:37:59.779Z,61.96
2018-03-30T17:40:28.826Z,61.87
2018-03-30T17:42:56.924Z,61.54
2018-03-30T17:45:25.857Z,62.24
2018-03-30T17:47:55.468Z,62.39
2018-03-30T17:50:24.472Z,62.67
2018-03-30T17:52:53.169Z,63.19
2018-03-30T17:55:22.074Z,63.90
2018-03-30T17:57:51.986Z,62.83
2018-03-30T18:00:20.733Z,62.94
2018-03-30T18:02:50.467Z,62.76
2018-03-30T18:05:19.281Z,62.97
2018-03-30T18:07:48.131Z,63.13
2018-03-30T18:10:16.964Z,63.77
2018-03-30T18:12:46.134Z,63.63
2018-03-30T18:15:15.031Z,65.13
2018-03-30T18:17:44.019Z,65.45
2018-03-30T18:20:13.113Z,64.99
2018-03-30T18:22:41.804Z,65.82
2018-03-30T18:25:10.751Z,64.51
2018-03-30T18:27:40.908Z,67.55
2018-03-30T18:30:10.012Z,67.76
2018-03-30T18:32:38.747Z,68.58
2018-03-30T18:35:08.611Z,69.81
2018-03-30T18:37:37.479Z,69.10
2018-03-30T18:40:06.858Z,68.83
2018-03-30T18:42:36.985Z,68.88
2018-03-30T18:45:05.725Z,68.20
2018-03-30T18:47:34.702Z,69.48
2018-03-30T18:50:03.795Z,70.65
2018-03-30T18:52:33.349Z,70.17
2018-03-30T18:55:02.913Z,71.42
2018-03-30T18:57:32.008Z,72.37
2018-03-30T19:00:00.970Z,72.82
2018-03-30T19:02:29.998Z,71.60
2018-03-30T19:04:58.903Z,71.19
2018-03-30T19:07:28.009Z,71.67
2018-03-30T19:09:57.047Z,71.86
2018-03-30T19:12:26.211Z,72.05
2018-03-30T19:14:55.747Z,72.99
2018-03-30T19:17:24.791Z,73.71
2018-03-30T19:19:53.006Z,73.37
2018-03-30T19:22:22.754Z,73.52
2018-03-30T19:24:51.803Z,71.78
2018-03-30T19:27:21.286Z,70.34
2018-03-30T19:29:50.224Z,71.96
2018-03-30T19:32:18.531Z,71.69
2018-03-30T19:34:46.754Z,72.16
2018-03-30T19:37:15.740Z,70.53
2018-03-30T19:39:44.891Z,71.08
2018-03-30T19:42:13.867Z,71.39
2018-03-30T19:44:42.092Z,71.19
2018-03-30T19:47:10.371Z,72.09
2018-03-30T19:49:38.550Z,72.25
2018-03-30T19:52:06.767Z,73.08
2018-03-30T19:54:35.066Z,74.40
2018-03-30T19:57:03.334Z,74.74
2018-03-30T19:59:31.524Z,74.98
2018-03-30T20:01:59.954Z,75.46
2018-03-30T20:04:28.129Z,76.21
2018-03-30T20:06:56.320Z,77.31
2018-03-30T20:09:24.636Z,78.07
2018-03-30T20:11:52.771Z,77.75
2018-03-30T20:14:21.927Z,77.39
2018-03-30T20:16:51.063Z,76.81
2018-03-30T20:19:19.288Z,76.38
2018-03-30T20:21:48.511Z,76.50
2018-03-30T20:24:16.722Z,76.87
2018-03-30T20:26:44.899Z,76.46
2018-03-30T20:29:13.204Z,75.50
2018-03-30T20:31:41.378Z,76.37
2018-03-30T20:34:09.540Z,76.41
2018-03-30T20:36:37.780Z,75.26
2018-03-30T20:39:05.973Z,74.82
2018-03-30T20:41:34.211Z,74.70
2018-03-30T20:44:02.495Z,73.37
2018-03-30T20:46:30.664Z,73.20
2018-03-30T20:48:58.842Z,72.58
2018-03-30T20:51:27.108Z,73.99
2018-03-30T20:53:55.338Z,73.62
2018-03-30T20:56:23.497Z,73.08
2018-03-30T20:58:51.833Z,72.40
2018-03-30T21:01:20.005Z,71.79
2018-03-30T21:03:48.484Z,71.28
2018-03-30T21:06:16.799Z,71.26
2018-03-30T21:08:44.995Z,71.29
2018-03-30T21:11:13.216Z,70.71
2018-03-30T21:13:42.288Z,70.47
2018-03-30T21:16:10.682Z,70.29
2018-03-30T21:18:39.680Z,70.31
2018-03-30T21:21:08.691Z,69.60
2018-03-30T21:23:36.879Z,69.51
2018-03-30T21:26:05.026Z,69.90
2018-03-30T21:28:33.253Z,69.88
2018-03-30T21:31:01.453Z,71.44
2018-03-30T21:33:29.514Z,71.61
2018-03-30T21:35:57.748Z,72.06
2018-03-30T21:38:25.934Z,72.58
2018-03-30T21:40:54.101Z,72.85
2018-03-30T21:43:22.350Z,72.43
2018-03-30T21:45:50.272Z,72.33
2018-03-30T21:48:17.863Z,75.84
2018-03-30T21:50:45.468Z,77.24
2018-03-30T21:53:13.716Z,76.70
2018-03-30T21:55:41.245Z,76.47
2018-03-30T21:58:08.838Z,77.21
2018-03-30T22:00:36.353Z,77.40
2018-03-30T22:03:03.826Z,78.51
2018-03-30T22:05:31.313Z,78.88
2018-03-30T22:07:58.776Z,78.71
2018-03-30T22:10:26.246Z,77.95
2018-03-30T22:12:53.737Z,79.62
2018-03-30T22:15:21.968Z,79.08
2018-03-30T22:17:49.432Z,78.94
2018-03-30T22:20:16.929Z,79.59
2018-03-30T22:22:45.209Z,79.76
2018-03-30T22:25:12.694Z,78.15
2018-03-30T22:27:40.154Z,77.70
2018-03-30T22:30:07.642Z,77.29
2018-03-30T22:32:35.128Z,78.51
2018-03-30T22:35:03.364Z,79.48
2018-03-30T22:37:30.830Z,79.71
2018-03-30T22:39:58.344Z,79.70
2018-03-30T22:42:25.809Z,80.21
2018-03-30T22:44:53.269Z,80.06
2018-03-30T22:47:20.753Z,79.06
2018-03-30T22:49:48.292Z,79.38
2018-03-30T22:52:15.756Z,79.76
2018-03-30T22:54:43.241Z,79.72
2018-03-30T22:57:10.716Z,79.65
2018-03-30T22:59:38.952Z,79.62
2018-03-30T23:02:06.443Z,80.67
2018-03-30T23:04:34.688Z,80.36
2018-03-30T23:07:02.156Z,80.00
2018-03-30T23:09:29.633Z,80.08
2018-03-30T23:11:57.128Z,79.94
2018-03-30T23:14:24.604Z,81.35
2018-03-30T23:16:52.083Z,81.82
2018-03-30T23:19:19.560Z,81.56
2018-03-30T23:21:47.036Z,82.10
2018-03-30T23:24:15.292Z,82.10
2018-03-30T23:26:42.752Z,81.65
2018-03-30T23:29:10.219Z,81.54
2018-03-30T23:31:38.469Z,81.66
2018-03-30T23:34:05.923Z,81.88
2018-03-30T23:36:33.416Z,81.45
2018-03-30T23:39:01.676Z,81.36
2018-03-30T23:41:29.141Z,81.26
2018-03-30T23:43:57.373Z,81.81
2018-03-30T23:46:24.846Z,81.51
2018-03-30T23:48:52.312Z,81.58
2018-03-30T23:51:19.788Z,82.13
2018-03-30T23:53:48.047Z,82.20
2018-03-30T23:56:15.514Z,81.73
2018-03-30T23:58:42.981Z,82.56
